createdAt,value
2023-03-13T00:02:09.337Z,3.60
2023-03-13T00:04:36.885Z,2.97
2023-03-13T00:07:05.107Z,3.60
2023-03-13T00:09:32.639Z,4.53
2023-03-13T00:12:02.250Z,2.85
2023-03-13T00:14:29.865Z,2.92
2023-03-13T00:17:01.143Z,5.53
2023-03-13T00:19:29.821Z,5.00
2023-03-13T00:21:59.967Z,4.07
2023-03-13T00:24:27.328Z,4.88
2023-03-13T00:26:56.117Z,6.13
2023-03-13T00:29:24.483Z,7.28
2023-03-13T00:31:53.175Z,5.38
2023-03-13T00:34:26.521Z,5.72
2023-03-13T00:36:57.801Z,7.45
2023-03-13T00:39:25.576Z,5.80
2023-03-13T00:41:57.713Z,4.68
2023-03-13T00:44:33.769Z,5.15
2023-03-13T00:47:02.511Z,3.90
2023-03-13T00:49:40.512Z,4.32
2023-03-13T00:52:16.327Z,3.58
2023-03-13T00:54:55.731Z,5.35
2023-03-13T00:57:23.363Z,5.45
2023-03-13T00:59:53.721Z,5.68
2023-03-13T01:02:25.579Z,4.00
2023-03-13T01:04:58.652Z,5.45
2023-03-13T01:07:29.992Z,4.53
2023-03-13T01:09:57.758Z,4.32
2023-03-13T01:12:31.353Z,4.40
2023-03-13T01:15:05.131Z,4.90
2023-03-13T01:17:33.816Z,4.45
2023-03-13T01:20:01.392Z,5.60
2023-03-13T01:22:29.022Z,3.90
2023-03-13T01:25:00.090Z,4.28
2023-03-13T01:27:31.839Z,4.72
2023-03-13T01:29:59.698Z,5.32
2023-03-13T01:32:27.771Z,4.15
2023-03-13T01:34:58.089Z,4.50
2023-03-13T01:37:26.381Z,4.55
2023-03-13T01:39:54.181Z,4.47
2023-03-13T01:42:21.928Z,3.97
2023-03-13T01:44:57.603Z,6.30
2023-03-13T01:47:26.703Z,2.67
2023-03-13T01:50:14.666Z,3.90
2023-03-13T01:52:57.047Z,2.55
2023-03-13T01:55:29.444Z,2.10
2023-03-13T01:57:57.380Z,2.25
2023-03-13T02:00:35.884Z,1.98
2023-03-13T02:03:12.665Z,2.05
2023-03-13T02:05:42.425Z,2.28
2023-03-13T02:08:19.178Z,1.88
2023-03-13T02:11:06.972Z,1.80
2023-03-13T02:16:02.619Z,1.98
2023-03-13T02:18:30.631Z,2.42
2023-03-13T02:21:10.301Z,2.83
2023-03-13T02:23:59.210Z,2.63
2023-03-13T02:26:28.133Z,2.42
2023-03-13T02:28:55.537Z,1.48
2023-03-13T02:31:23.496Z,2.42
2023-03-13T02:33:51.016Z,2.42
2023-03-13T02:36:20.988Z,1.52
2023-03-13T02:38:59.803Z,1.50
2023-03-13T02:41:29.083Z,1.85
2023-03-13T02:44:04.460Z,1.92
2023-03-13T02:46:32.457Z,3.05
2023-03-13T02:49:16.906Z,1.55
2023-03-13T02:51:46.278Z,2.88
2023-03-13T02:54:37.697Z,2.78
2023-03-13T02:57:09.018Z,1.83
2023-03-13T02:59:36.508Z,3.88
2023-03-13T03:02:04.870Z,2.05
2023-03-13T03:04:32.573Z,2.35
2023-03-13T03:07:00.125Z,2.38
2023-03-13T03:09:27.669Z,1.98
2023-03-13T03:11:59.058Z,2.03
2023-03-13T03:14:29.272Z,1.55
2023-03-13T03:16:57.291Z,1.15
2023-03-13T03:19:26.551Z,4.68
2023-03-13T03:21:54.313Z,2.58
2023-03-13T03:24:30.587Z,2.35
2023-03-13T03:26:58.269Z,1.83
2023-03-13T03:29:29.948Z,2.55
2023-03-13T03:31:59.004Z,2.58
2023-03-13T03:34:27.834Z,1.48
2023-03-13T03:36:56.835Z,2.20
2023-03-13T03:39:24.696Z,1.65
2023-03-13T03:41:52.481Z,1.80
2023-03-13T03:44:20.206Z,1.27
2023-03-13T03:46:53.331Z,1.30
2023-03-13T03:49:22.333Z,1.38
2023-03-13T03:51:57.066Z,1.25
2023-03-13T03:54:38.668Z,1.45
2023-03-13T03:57:06.732Z,1.15
2023-03-13T03:59:35.202Z,0.80
2023-03-13T04:02:15.268Z,0.70
2023-03-13T04:04:44.239Z,0.88
2023-03-13T04:07:20.429Z,0.98
2023-03-13T04:09:48.249Z,0.75
2023-03-13T04:12:24.446Z,1.63
2023-03-13T04:14:54.185Z,1.23
2023-03-13T04:17:22.340Z,0.60
2023-03-13T04:19:50.487Z,0.70
2023-03-13T04:22:18.173Z,1.58
2023-03-13T04:24:50.936Z,1.23
2023-03-13T04:27:20.273Z,0.90
2023-03-13T04:29:51.598Z,2.15
2023-03-13T04:32:34.394Z,1.90
2023-03-13T04:35:32.239Z,1.40
2023-03-13T04:38:19.969Z,2.03
2023-03-13T04:40:55.665Z,2.78
2023-03-13T04:43:34.233Z,1.75
2023-03-13T04:46:15.337Z,2.00
2023-03-13T04:48:48.791Z,1.45
2023-03-13T04:51:50.342Z,2.33
2023-03-13T04:54:37.964Z,1.17
2023-03-13T04:57:27.509Z,1.15
2023-03-13T05:00:35.835Z,1.67
2023-03-13T05:03:21.725Z,1.38
2023-03-13T05:06:00.728Z,2.97
2023-03-13T05:08:47.569Z,2.17
2023-03-13T05:11:40.452Z,2.78
2023-03-13T05:14:37.136Z,2.25
2023-03-13T05:17:27.809Z,2.03
2023-03-13T05:20:11.993Z,1.08
2023-03-13T05:22:49.944Z,2.05
2023-03-13T05:25:17.591Z,2.20
2023-03-13T05:28:03.994Z,1.80
2023-03-13T05:30:57.331Z,1.67
2023-03-13T05:33:43.537Z,3.33
2023-03-13T05:36:39.932Z,3.03
2023-03-13T05:39:34.748Z,2.25
2023-03-13T05:42:31.572Z,2.17
2023-03-13T05:48:27.001Z,4.10
2023-03-13T05:51:13.584Z,3.05
2023-03-13T05:53:53.283Z,3.47
2023-03-13T05:56:50.623Z,4.10
2023-03-13T05:59:42.203Z,3.67
2023-03-13T06:02:25.408Z,5.13
2023-03-13T06:04:52.915Z,3.03
2023-03-13T06:07:20.785Z,3.17
2023-03-13T06:09:48.921Z,2.97
2023-03-13T06:12:16.273Z,4.65
2023-03-13T06:14:44.049Z,4.00
2023-03-13T06:17:25.597Z,2.58
2023-03-13T06:19:52.990Z,4.05
2023-03-13T06:22:20.343Z,1.95
2023-03-13T06:24:49.605Z,3.47
2023-03-13T06:27:17.461Z,3.47
2023-03-13T06:29:44.772Z,3.30
2023-03-13T06:32:12.635Z,3.03
2023-03-13T06:34:39.870Z,3.45
2023-03-13T06:37:07.200Z,5.55
2023-03-13T06:39:34.510Z,5.47
2023-03-13T06:42:02.180Z,2.72
2023-03-13T06:44:29.448Z,6.53
2023-03-13T06:46:56.944Z,4.03
2023-03-13T06:49:24.228Z,4.65
2023-03-13T06:51:51.527Z,6.65
2023-03-13T06:54:18.931Z,5.10
2023-03-13T06:56:46.180Z,4.53
2023-03-13T06:59:13.496Z,4.72
2023-03-13T07:01:40.953Z,4.47
2023-03-13T07:04:17.441Z,6.57
2023-03-13T07:06:45.181Z,3.65
2023-03-13T07:09:13.065Z,5.25
2023-03-13T07:11:50.297Z,4.93
2023-03-13T07:14:26.706Z,6.47
2023-03-13T07:16:54.921Z,6.95
2023-03-13T07:19:22.749Z,7.88
2023-03-13T07:21:50.400Z,7.15
2023-03-13T07:24:37.431Z,9.00
2023-03-13T07:27:11.766Z,5.22
2023-03-13T07:29:41.833Z,8.25
2023-03-13T07:32:09.792Z,5.93
2023-03-13T07:34:37.994Z,6.32
2023-03-13T07:37:08.195Z,6.13
2023-03-13T07:39:36.816Z,7.70
2023-03-13T07:42:04.641Z,5.05
2023-03-13T07:44:32.524Z,7.93
2023-03-13T07:47:27.230Z,5.85
2023-03-13T07:49:56.428Z,5.03
2023-03-13T07:52:33.851Z,5.38
2023-03-13T07:55:12.504Z,7.18
2023-03-13T07:58:03.137Z,6.65
2023-03-13T08:00:50.685Z,6.00
2023-03-13T08:03:21.865Z,7.40
2023-03-13T08:05:59.097Z,7.07
2023-03-13T08:08:27.593Z,6.65
2023-03-13T08:11:03.994Z,5.57
2023-03-13T08:13:35.906Z,6.20
2023-03-13T08:16:19.092Z,6.55
2023-03-13T08:18:49.145Z,6.35
2023-03-13T08:21:22.107Z,5.72
2023-03-13T08:23:53.941Z,7.55
2023-03-13T08:26:23.294Z,5.60
2023-03-13T08:29:42.470Z,6.85
2023-03-13T08:37:50.791Z,7.87
2023-03-13T08:40:42.048Z,5.90
2023-03-13T08:43:09.772Z,6.38
2023-03-13T08:45:37.269Z,7.13
2023-03-13T08:48:11.455Z,4.78
2023-03-13T08:51:13.239Z,5.25
2023-03-13T08:53:50.413Z,5.00
2023-03-13T08:56:20.655Z,5.45
2023-03-13T08:58:56.596Z,5.90
2023-03-13T09:01:42.296Z,7.95
2023-03-13T09:04:10.187Z,6.32
2023-03-13T09:06:39.163Z,6.25
2023-03-13T09:09:07.703Z,6.53
2023-03-13T09:11:37.119Z,4.47
2023-03-13T09:14:04.445Z,7.35
2023-03-13T09:16:33.869Z,5.38
2023-03-13T09:19:01.255Z,7.88
2023-03-13T09:21:31.593Z,7.93
2023-03-13T09:23:59.399Z,7.00
2023-03-13T09:26:27.810Z,8.48
2023-03-13T09:28:56.044Z,6.40
2023-03-13T09:31:31.839Z,4.78
2023-03-13T09:34:00.149Z,6.70
2023-03-13T09:36:28.293Z,6.50
2023-03-13T09:38:58.517Z,7.03
2023-03-13T09:41:57.668Z,7.43
2023-03-13T09:44:50.425Z,6.70
2023-03-13T09:47:38.421Z,8.38
2023-03-13T09:50:14.020Z,7.47
2023-03-13T09:52:42.042Z,6.38
2023-03-13T09:55:23.448Z,5.82
2023-03-13T09:58:00.976Z,5.22
2023-03-13T10:00:47.701Z,7.22
2023-03-13T10:03:42.808Z,6.68
2023-03-13T10:06:21.097Z,6.45
2023-03-13T10:08:48.729Z,7.28
2023-03-13T10:12:08.870Z,5.78
2023-03-13T10:15:07.401Z,4.93
2023-03-13T10:17:40.831Z,9.52
2023-03-13T10:21:02.943Z,8.63
2023-03-13T10:26:37.714Z,8.18
2023-03-13T10:29:46.077Z,5.60
2023-03-13T10:32:17.161Z,8.75
2023-03-13T10:34:56.732Z,10.63
2023-03-13T10:38:03.933Z,6.60
2023-03-13T10:40:36.259Z,6.30
2023-03-13T10:43:27.708Z,6.53
2023-03-13T10:45:59.284Z,8.60
2023-03-13T10:48:36.435Z,7.38
2023-03-13T10:51:04.765Z,7.13
2023-03-13T10:53:43.413Z,9.27
2023-03-13T10:56:16.168Z,6.82
2023-03-13T10:59:13.000Z,8.35
2023-03-13T11:01:48.535Z,7.05
2023-03-13T11:04:38.823Z,7.07
2023-03-13T11:07:46.365Z,7.13
2023-03-13T11:10:20.250Z,6.78
2023-03-13T11:13:04.117Z,5.75
2023-03-13T11:16:03.192Z,7.10
2023-03-13T11:18:48.551Z,5.15
2023-03-13T11:21:37.690Z,6.47
2023-03-13T11:24:44.119Z,5.80
2023-03-13T11:27:30.352Z,6.80
2023-03-13T11:30:04.335Z,8.68
2023-03-13T11:32:41.626Z,5.75
2023-03-13T11:35:29.783Z,5.75
2023-03-13T11:37:58.536Z,6.43
2023-03-13T11:40:48.077Z,6.07
2023-03-13T11:44:00.627Z,5.72
2023-03-13T11:47:09.788Z,7.55
2023-03-13T11:49:41.026Z,7.05
2023-03-13T11:52:34.373Z,7.22
2023-03-13T11:55:02.817Z,7.53
2023-03-13T11:57:39.941Z,7.63
2023-03-13T12:00:31.365Z,8.93
2023-03-13T12:03:26.384Z,6.10
2023-03-13T12:05:57.537Z,5.55
2023-03-13T12:08:34.498Z,6.95
2023-03-13T12:11:16.000Z,6.57
2023-03-13T12:13:51.957Z,5.57
2023-03-13T12:16:23.989Z,5.25
2023-03-13T12:18:54.725Z,7.15
2023-03-13T12:21:58.287Z,7.88
2023-03-13T12:24:41.104Z,5.35
2023-03-13T12:27:32.801Z,7.40
2023-03-13T12:30:06.784Z,6.20
2023-03-13T12:32:50.655Z,6.47
2023-03-13T12:35:29.581Z,6.75
2023-03-13T12:38:20.094Z,8.43
2023-03-13T12:41:15.845Z,8.95
2023-03-13T12:44:00.654Z,7.63
2023-03-13T12:46:40.999Z,7.97
2023-03-13T12:49:18.789Z,7.35
2023-03-13T12:52:07.928Z,7.63
2023-03-13T12:54:53.776Z,6.88
2023-03-13T12:57:39.725Z,7.78
2023-03-13T13:00:19.356Z,5.57
2023-03-13T13:02:47.490Z,5.63
2023-03-13T13:05:24.770Z,6.45
2023-03-13T13:10:29.051Z,6.75
2023-03-13T13:13:31.091Z,6.20
2023-03-13T13:16:29.116Z,5.57
2023-03-13T13:19:12.594Z,6.82
2023-03-13T13:21:42.161Z,6.35
2023-03-13T13:24:53.660Z,7.45
2023-03-13T13:27:51.958Z,5.28
2023-03-13T13:30:19.512Z,6.30
2023-03-13T13:32:48.144Z,6.93
2023-03-13T13:35:26.656Z,5.93
2023-03-13T13:38:30.377Z,5.68
2023-03-13T13:41:11.420Z,5.70
2023-03-13T13:43:47.144Z,6.50
2023-03-13T13:46:35.693Z,4.45
2023-03-13T13:49:30.745Z,7.70
2023-03-13T13:52:12.442Z,7.97
2023-03-13T13:54:44.778Z,7.63
2023-03-13T13:57:32.260Z,6.45
2023-03-13T14:00:20.996Z,5.93
2023-03-13T14:02:56.902Z,7.13
2023-03-13T14:05:33.613Z,5.05
2023-03-13T14:08:14.340Z,5.40
2023-03-13T14:11:24.199Z,5.13
2023-03-13T14:14:10.525Z,4.50
2023-03-13T14:16:39.390Z,5.70
2023-03-13T14:19:28.207Z,4.80
2023-03-13T14:22:04.307Z,5.28
2023-03-13T14:24:35.493Z,7.82
2023-03-13T14:27:15.311Z,6.03
2023-03-13T14:29:59.421Z,7.05
2023-03-13T14:32:27.330Z,7.43
2023-03-13T14:34:55.124Z,5.30
2023-03-13T14:37:37.637Z,5.97
2023-03-13T14:40:25.166Z,7.30
2023-03-13T14:43:02.268Z,5.75
2023-03-13T14:45:35.609Z,6.80
2023-03-13T14:48:11.196Z,4.72
2023-03-13T14:50:39.670Z,5.55
2023-03-13T14:53:28.644Z,6.07
2023-03-13T14:56:15.107Z,5.40
2023-03-13T14:58:42.893Z,6.15
2023-03-13T15:01:48.961Z,5.28
2023-03-13T15:04:23.940Z,7.63
2023-03-13T15:07:03.274Z,6.70
2023-03-13T15:09:30.928Z,5.32
2023-03-13T15:12:16.570Z,5.47
2023-03-13T15:15:06.982Z,5.93
2023-03-13T15:17:37.714Z,6.28
2023-03-13T15:20:12.891Z,5.43
2023-03-13T15:22:43.917Z,4.88
2023-03-13T15:25:27.370Z,5.70
2023-03-13T15:27:55.134Z,6.53
2023-03-13T15:30:25.628Z,5.80
2023-03-13T15:32:53.338Z,7.55
2023-03-13T15:35:25.617Z,6.78
2023-03-13T15:37:53.819Z,4.65
2023-03-13T15:40:25.695Z,6.28
2023-03-13T15:42:53.828Z,5.70
2023-03-13T15:45:26.292Z,5.05
2023-03-13T15:47:54.347Z,4.22
2023-03-13T15:50:25.614Z,5.90
2023-03-13T15:52:53.123Z,3.30
2023-03-13T15:55:20.562Z,7.20
2023-03-13T15:57:50.608Z,8.23
2023-03-13T16:00:23.549Z,7.30
2023-03-13T16:02:51.147Z,3.75
2023-03-13T16:05:19.197Z,9.93
2023-03-13T16:07:50.597Z,5.35
2023-03-13T16:10:25.230Z,4.97
2023-03-13T16:12:54.299Z,6.70
2023-03-13T16:15:21.942Z,5.10
2023-03-13T16:17:49.479Z,5.55
2023-03-13T16:20:20.988Z,5.47
2023-03-13T16:22:48.428Z,4.15
2023-03-13T16:25:16.293Z,4.68
2023-03-13T16:27:44.357Z,6.50
2023-03-13T16:30:21.975Z,4.40
2023-03-13T16:32:55.213Z,7.38
2023-03-13T16:35:27.065Z,4.15
2023-03-13T16:38:00.742Z,5.60
2023-03-13T16:40:34.652Z,5.95
2023-03-13T16:43:02.455Z,4.97
2023-03-13T16:45:37.835Z,6.88
2023-03-13T16:48:05.618Z,6.25
2023-03-13T16:50:46.878Z,4.50
2023-03-13T16:53:20.829Z,9.32
2023-03-13T16:56:22.111Z,6.13
2023-03-13T16:58:51.665Z,7.13
2023-03-13T17:01:47.400Z,7.18
2023-03-13T17:04:15.951Z,6.88
2023-03-13T17:06:45.058Z,6.07
2023-03-13T17:09:19.410Z,5.90
2023-03-13T17:11:47.531Z,6.65
2023-03-13T17:14:17.962Z,5.43
2023-03-13T17:16:46.687Z,5.28
2023-03-13T17:19:26.462Z,6.07
2023-03-13T17:21:56.364Z,4.63
2023-03-13T17:24:27.209Z,5.07
2023-03-13T17:26:55.725Z,7.13
2023-03-13T17:29:24.226Z,5.60
2023-03-13T17:31:52.707Z,5.88
2023-03-13T17:34:27.889Z,7.03
2023-03-13T17:36:56.315Z,5.15
2023-03-13T17:39:29.394Z,5.43
2023-03-13T17:42:08.935Z,3.25
2023-03-13T17:44:48.852Z,6.32
2023-03-13T17:47:23.663Z,3.60
2023-03-13T17:49:51.233Z,3.63
2023-03-13T17:52:18.969Z,5.45
2023-03-13T17:54:47.823Z,5.30
2023-03-13T17:57:41.863Z,5.93
2023-03-13T18:00:31.894Z,4.75
2023-03-13T18:03:01.061Z,5.75
2023-03-13T18:05:30.799Z,5.45
2023-03-13T18:08:01.095Z,8.90
2023-03-13T18:10:30.318Z,4.68
2023-03-13T18:13:00.655Z,6.40
2023-03-13T18:15:31.436Z,4.35
2023-03-13T18:17:59.431Z,4.88
2023-03-13T18:20:30.842Z,4.95
2023-03-13T18:25:40.966Z,4.22
2023-03-13T18:28:11.478Z,7.90
2023-03-13T18:30:39.710Z,5.40
2023-03-13T18:33:07.147Z,5.57
2023-03-13T18:35:34.676Z,3.85
2023-03-13T18:38:02.171Z,4.53
2023-03-13T18:40:36.645Z,6.75
2023-03-13T18:43:04.296Z,6.43
2023-03-13T18:45:32.027Z,6.07
2023-03-13T18:48:00.624Z,5.88
2023-03-13T18:50:32.608Z,5.28
2023-03-13T18:53:08.761Z,7.53
2023-03-13T18:55:36.351Z,5.55
2023-03-13T18:58:04.019Z,4.45
2023-03-13T19:00:31.935Z,3.95
2023-03-13T19:02:59.416Z,6.88
2023-03-13T19:05:27.010Z,5.55
2023-03-13T19:07:54.935Z,5.40
2023-03-13T19:10:31.365Z,4.57
2023-03-13T19:13:10.236Z,4.53
2023-03-13T19:15:38.499Z,5.75
2023-03-13T19:18:07.621Z,4.90
2023-03-13T19:20:35.025Z,5.60
2023-03-13T19:23:02.548Z,4.82
2023-03-13T19:25:29.954Z,6.55
2023-03-13T19:27:57.387Z,4.63
2023-03-13T19:30:25.927Z,4.40
2023-03-13T19:32:53.828Z,5.95
2023-03-13T19:35:30.371Z,5.63
2023-03-13T19:38:00.891Z,6.45
2023-03-13T19:40:33.336Z,5.70
2023-03-13T19:43:00.970Z,6.85
2023-03-13T19:45:31.010Z,4.50
2023-03-13T19:47:58.478Z,4.63
2023-03-13T19:50:29.807Z,3.70
2023-03-13T19:52:57.364Z,4.40
2023-03-13T19:55:24.954Z,2.80
2023-03-13T19:57:56.893Z,4.90
2023-03-13T20:00:28.017Z,4.75
2023-03-13T20:02:55.742Z,2.85
2023-03-13T20:05:25.013Z,3.65
2023-03-13T20:07:54.120Z,2.65
2023-03-13T20:10:22.415Z,2.90
2023-03-13T20:12:50.049Z,3.17
2023-03-13T20:15:18.043Z,2.63
2023-03-13T20:17:45.550Z,3.17
2023-03-13T20:20:13.809Z,4.85
2023-03-13T20:22:42.109Z,3.00
2023-03-13T20:25:10.599Z,3.33
2023-03-13T20:27:39.145Z,2.83
2023-03-13T20:30:07.487Z,2.58
2023-03-13T20:32:59.780Z,2.72
2023-03-13T20:35:23.451Z,2.92
2023-03-13T20:37:55.161Z,5.10
2023-03-13T20:40:24.455Z,2.85
2023-03-13T20:42:51.887Z,4.50
2023-03-13T20:45:19.368Z,2.95
2023-03-13T20:47:46.832Z,4.10
2023-03-13T20:50:14.306Z,3.03
2023-03-13T20:52:41.807Z,3.88
2023-03-13T20:55:20.227Z,2.75
2023-03-13T20:57:58.599Z,3.10
2023-03-13T21:00:34.768Z,3.58
2023-03-13T21:03:10.069Z,3.92
2023-03-13T21:05:41.843Z,5.38
2023-03-13T21:08:09.955Z,4.50
2023-03-13T21:10:38.992Z,4.45
2023-03-13T21:13:09.209Z,4.25
2023-03-13T21:15:39.656Z,3.58
2023-03-13T21:18:07.683Z,5.18
2023-03-13T21:20:37.741Z,3.55
2023-03-13T21:23:05.790Z,4.95
2023-03-13T21:25:43.594Z,3.85
2023-03-13T21:28:11.053Z,6.45
2023-03-13T21:30:38.483Z,4.45
2023-03-13T21:33:05.974Z,3.60
2023-03-13T21:35:33.425Z,3.78
2023-03-13T21:38:00.838Z,3.25
2023-03-13T21:40:28.960Z,3.70
2023-03-13T21:42:56.342Z,4.25
2023-03-13T21:45:23.702Z,4.75
2023-03-13T21:47:51.298Z,4.28
2023-03-13T21:52:51.348Z,5.32
2023-03-13T21:55:19.415Z,5.45
2023-03-13T21:57:46.673Z,4.88
2023-03-13T22:00:17.468Z,5.60
2023-03-13T22:02:45.195Z,5.05
2023-03-13T22:05:12.884Z,4.30
2023-03-13T22:07:40.265Z,3.40
2023-03-13T22:10:08.191Z,4.03
2023-03-13T22:12:37.323Z,5.38
2023-03-13T22:15:07.740Z,3.42
2023-03-13T22:17:35.338Z,5.35
2023-03-13T22:20:02.786Z,2.20
2023-03-13T22:22:36.364Z,2.15
2023-03-13T22:25:07.780Z,6.32
2023-03-13T22:27:35.506Z,4.28
2023-03-13T22:30:03.528Z,4.78
2023-03-13T22:32:30.890Z,4.93
2023-03-13T22:34:58.561Z,6.00
2023-03-13T22:37:29.668Z,4.72
2023-03-13T22:39:57.142Z,6.97
2023-03-13T22:42:24.896Z,6.22
2023-03-13T22:44:56.020Z,5.60
2023-03-13T22:47:52.853Z,4.95
2023-03-13T22:50:37.758Z,2.72
2023-03-13T22:53:05.381Z,5.05
2023-03-13T22:55:33.604Z,5.07
2023-03-13T22:58:03.216Z,3.17
2023-03-13T23:00:34.244Z,5.15
2023-03-13T23:03:01.886Z,4.05
2023-03-13T23:05:42.132Z,4.57
2023-03-13T23:08:10.240Z,3.90
2023-03-13T23:10:37.899Z,3.40
2023-03-13T23:13:05.404Z,4.35
2023-03-13T23:15:42.999Z,5.57
2023-03-13T23:18:20.537Z,3.78
2023-03-13T23:20:48.185Z,2.83
2023-03-13T23:23:19.515Z,4.90
2023-03-13T23:25:47.169Z,4.50
2023-03-13T23:28:14.837Z,4.00
2023-03-13T23:30:42.546Z,4.45
2023-03-13T23:33:11.581Z,4.28
2023-03-13T23:35:39.559Z,3.83
2023-03-13T23:38:07.005Z,4.22
2023-03-13T23:40:34.565Z,3.03
2023-03-13T23:43:05.496Z,5.35
2023-03-13T23:45:36.509Z,4.60
2023-03-13T23:48:03.998Z,8.55
2023-03-13T23:50:31.494Z,6.95
2023-03-13T23:52:58.917Z,6.07
2023-03-13T23:55:26.398Z,5.10
2023-03-13T23:57:53.993Z,4.10
